Terminal Aerodrome Forecast
Issued by NWS

Home | Current Version | Previous Version | Text Only | Print | Product List | Glossary On
Versions: 1 2 3 4 5 6 7 8 9 10 11 12 13 14 15 16
000
FTUS42 KMLB 011134
TAFISM
TAF
KISM 011134Z 0112/0212 20007KT P6SM VCSH SCT035 BKN080 OVC090
     FM011600 22011G18KT P6SM VCTS SCT030CB BKN120
      TEMPO 0118/0121 4SM TSRA BKN025CB BKN035
     FM020000 22006KT P6SM FEW025 BKN150 BKN250=

USA.gov is the U.S. government's official web portal to all federal, state and local government web resources and services.